Time;durP1;ratioP1;P1;durP2;ratioP2;P2;SDS_P1;SDS_P2;PMS_P1;PMS_P2;Temp;Humidity;BMP_temperature;BMP_pressure;BME280_temperature;BME280_humidity;BME280_pressure;Samples;Min_cycle;Max_cycle;Signal;HPM_P1;HPM_P2
2023/03/16 00:01:07;;;;;;;12.65;5.10;;;;;;;2.85;98.49;100934.88;8327609;28;20041;-60
2023/03/16 00:05:09;;;;;;;9.68;5.32;;;;;;;2.85;98.62;100937.53;8328070;28;20037;-60
2023/03/16 00:09:10;;;;;;;10.57;5.38;;;;;;;2.86;98.43;100933.91;8328324;28;20124;-60
2023/03/16 00:13:13;;;;;;;6.53;4.88;;;;;;;2.90;98.29;100930.13;8325910;28;20042;-60
2023/03/16 00:17:18;;;;;;;7.20;5.10;;;;;;;2.93;97.74;100929.13;8328254;28;20067;-60
2023/03/16 00:21:18;;;;;;;6.75;5.10;;;;;;;3.00;97.73;100927.84;8315915;28;20080;-59
2023/03/16 00:25:19;;;;;;;8.60;5.13;;;;;;;3.05;96.54;100918.63;8327920;28;20038;-59
2023/03/16 00:29:21;;;;;;;6.38;4.45;;;;;;;3.14;95.80;100910.09;8327930;28;20441;-59
2023/03/16 00:33:21;;;;;;;6.97;3.72;;;;;;;3.23;95.32;100919.44;8326751;28;20052;-60
2023/03/16 00:37:24;;;;;;;5.65;3.88;;;;;;;3.24;95.59;100916.69;8327608;28;20057;-59
2023/03/16 00:41:25;;;;;;;10.07;4.15;;;;;;;3.22;95.56;100907.88;8326867;28;20038;-60
2023/03/16 00:45:25;;;;;;;5.18;3.65;;;;;;;3.25;95.52;100902.38;8325101;28;20043;-60
2023/03/16 00:49:26;;;;;;;6.00;4.25;;;;;;;3.21;96.26;100905.31;8327357;28;20042;-60
2023/03/16 00:53:27;;;;;;;6.47;4.15;;;;;;;3.26;96.39;100904.09;8322739;28;20038;-59
2023/03/16 00:57:28;;;;;;;3.90;3.50;;;;;;;3.32;95.85;100903.75;8323500;28;20060;-60
2023/03/16 01:01:32;;;;;;;4.88;3.90;;;;;;;3.38;95.64;100898.06;8323403;28;20407;-60
2023/03/16 01:05:32;;;;;;;8.25;4.43;;;;;;;3.40;95.69;100911.34;8326145;28;20099;-60
2023/03/16 01:09:35;;;;;;;5.65;4.05;;;;;;;3.42;95.97;100899.59;8322976;28;20041;-60
2023/03/16 01:13:37;;;;;;;9.75;4.00;;;;;;;3.38;96.49;100897.19;8323110;28;20618;-61
2023/03/16 01:17:38;;;;;;;5.45;4.07;;;;;;;3.42;96.38;100878.22;8324640;28;20037;-60
2023/03/16 01:21:41;;;;;;;5.05;3.47;;;;;;;3.44;95.95;100871.00;8325784;28;20084;-60
2023/03/16 01:25:51;;;;;;;7.75;3.45;;;;;;;3.51;94.61;100867.00;8326338;28;20119;-60
2023/03/16 01:29:52;;;;;;;4.00;3.10;;;;;;;3.57;94.05;100864.00;8317972;28;20091;-61
2023/03/16 01:33:52;;;;;;;6.38;3.72;;;;;;;3.57;94.19;100858.66;8326270;28;20089;-60
2023/03/16 01:37:56;;;;;;;3.88;3.47;;;;;;;3.55;94.34;100847.19;8326790;28;20044;-60
2023/03/16 01:41:59;;;;;;;3.95;3.30;;;;;;;3.61;94.56;100852.19;8325794;28;20045;-60
2023/03/16 01:50:16;;;;;;;7.93;3.50;;;;;;;3.68;93.67;100837.50;8350575;27;21056;-59
2023/03/16 01:54:22;;;;;;;5.47;3.83;;;;;;;3.65;94.52;100829.66;8354541;28;20384;-59
2023/03/16 01:58:23;;;;;;;5.72;3.35;;;;;;;3.65;95.15;100834.16;8326533;28;20041;-61
2023/03/16 02:02:28;;;;;;;5.40;3.67;;;;;;;3.68;94.66;100826.81;8353648;28;20041;-61
2023/03/16 02:06:31;;;;;;;4.53;3.25;;;;;;;3.79;94.18;100824.34;8354141;28;20037;-59
2023/03/16 02:10:33;;;;;;;9.45;3.60;;;;;;;3.83;93.68;100819.69;8353242;28;20053;-59
2023/03/16 02:14:34;;;;;;;5.50;3.10;;;;;;;3.83;93.87;100820.56;8353869;28;20068;-59
2023/03/16 02:18:35;;;;;;;5.72;3.03;;;;;;;3.74;94.87;100821.13;8353675;28;20481;-59
2023/03/16 02:22:41;;;;;;;9.07;3.80;;;;;;;3.69;95.96;100822.34;8353124;28;20067;-59
2023/03/16 02:26:52;;;;;;;6.70;4.35;;;;;;;3.68;95.99;100812.59;8353202;28;20063;-59
2023/03/16 02:30:57;;;;;;;4.32;3.90;;;;;;;3.72;95.46;100806.13;8353127;28;20048;-59
2023/03/16 02:35:00;;;;;;;5.10;3.80;;;;;;;3.74;95.09;100797.06;8353393;28;20033;-58
2023/03/16 02:39:00;;;;;;;10.40;4.07;;;;;;;3.76;94.82;100781.75;8353272;28;20037;-59
2023/03/16 02:43:07;;;;;;;4.90;3.72;;;;;;;3.83;93.85;100783.13;8375102;28;20091;-59
2023/03/16 02:47:24;;;;;;;6.05;4.07;;;;;;;3.87;93.40;100787.34;8352702;28;20041;-59
2023/03/16 02:51:24;;;;;;;7.65;3.97;;;;;;;3.87;93.73;100792.69;8346581;28;20518;-58
2023/03/16 02:55:25;;;;;;;6.18;3.78;;;;;;;3.86;93.38;100772.25;8352228;28;20033;-58
2023/03/16 02:59:26;;;;;;;6.95;3.50;;;;;;;3.87;93.90;100767.75;8342632;28;20046;-61
2023/03/16 03:03:27;;;;;;;4.75;3.40;;;;;;;3.89;93.68;100769.41;8329978;28;20516;-60
2023/03/16 03:07:30;;;;;;;8.13;3.42;;;;;;;3.89;93.60;100764.06;8330223;28;20034;-60
2023/03/16 03:11:37;;;;;;;5.15;3.30;;;;;;;3.87;93.63;100760.59;8330240;28;20060;-60
2023/03/16 03:15:37;;;;;;;6.25;3.28;;;;;;;3.88;93.60;100756.97;8330108;28;20030;-60
2023/03/16 03:19:42;;;;;;;7.57;3.33;;;;;;;3.94;93.38;100755.75;8329209;28;20108;-60
2023/03/16 03:23:45;;;;;;;6.20;4.05;;;;;;;3.92;93.26;100754.97;8314811;28;20044;-54
2023/03/16 03:27:47;;;;;;;5.50;4.05;;;;;;;3.88;93.53;100758.78;8323893;28;20033;-53
2023/03/16 03:31:51;;;;;;;4.47;3.72;;;;;;;3.89;93.45;100756.03;8328749;28;20380;-54
2023/03/16 03:36:00;;;;;;;5.68;3.63;;;;;;;3.89;93.30;100753.34;8329715;28;20037;-54
2023/03/16 03:40:09;;;;;;;9.20;3.97;;;;;;;3.93;92.84;100751.34;8328987;28;20072;-54
2023/03/16 03:44:09;;;;;;;4.57;3.78;;;;;;;3.96;92.23;100740.44;8329103;28;20037;-54
2023/03/16 03:48:11;;;;;;;6.13;3.80;;;;;;;4.01;91.91;100741.91;8329257;28;20038;-54
2023/03/16 03:52:12;;;;;;;7.13;3.50;;;;;;;4.08;91.57;100745.91;8328753;28;20037;-54
2023/03/16 03:56:13;;;;;;;6.38;3.60;;;;;;;4.08;91.72;100750.41;8328571;28;20783;-57
2023/03/16 04:00:19;;;;;;;4.80;3.47;;;;;;;4.09;91.79;100746.78;8328769;28;20466;-58
2023/03/16 04:04:19;;;;;;;9.02;3.80;;;;;;;4.09;91.94;100747.63;8328139;28;20107;-57
2023/03/16 04:08:20;;;;;;;4.82;3.25;;;;;;;4.11;91.80;100749.38;8328229;28;20557;-57
2023/03/16 04:12:21;;;;;;;6.47;3.75;;;;;;;4.06;92.11;100742.47;8342246;28;20041;-57
2023/03/16 04:16:25;;;;;;;7.95;3.60;;;;;;;4.11;91.75;100744.88;8328163;28;20046;-57
2023/03/16 04:20:30;;;;;;;4.03;3.15;;;;;;;4.18;90.89;100735.53;8327613;28;20033;-57
2023/03/16 04:24:33;;;;;;;4.75;3.75;;;;;;;4.27;90.28;100744.78;8327684;28;20041;-57
2023/03/16 04:28:34;;;;;;;7.57;4.25;;;;;;;4.34;90.12;100735.41;8328052;28;20072;-57
2023/03/16 04:32:34;;;;;;;6.57;4.13;;;;;;;4.34;90.03;100730.06;8327473;28;20042;-57
2023/03/16 04:36:36;;;;;;;6.47;3.70;;;;;;;4.34;90.05;100730.06;8327287;28;20572;-57
2023/03/16 04:40:36;;;;;;;5.20;3.53;;;;;;;4.40;90.36;100735.03;8326576;28;20450;-57
2023/03/16 04:44:44;;;;;;;6.95;3.92;;;;;;;4.40;90.60;100721.66;8327074;28;20060;-58
2023/03/16 04:48:47;;;;;;;9.05;3.97;;;;;;;4.43;90.26;100724.13;8326797;28;20041;-58
2023/03/16 04:52:48;;;;;;;6.72;3.65;;;;;;;4.42;90.33;100709.03;8326573;28;20041;-58
2023/03/16 04:56:48;;;;;;;6.45;3.38;;;;;;;4.38;90.89;100699.47;8327118;28;20116;-56
2023/03/16 05:01:01;;;;;;;7.15;4.00;;;;;;;4.37;91.20;100709.31;8326051;28;20141;-57
2023/03/16 05:05:04;;;;;;;6.00;4.05;;;;;;;4.29;91.73;100705.41;8326582;28;20060;-58
2023/03/16 05:09:07;;;;;;;7.32;4.43;;;;;;;4.28;91.79;100706.38;8326314;28;20112;-58
2023/03/16 05:13:10;;;;;;;9.05;4.40;;;;;;;4.23;91.79;100695.94;8326529;28;20076;-58
2023/03/16 05:17:13;;;;;;;11.00;5.30;;;;;;;4.29;91.67;100700.03;8326929;28;20040;-58
2023/03/16 05:21:15;;;;;;;9.15;4.40;;;;;;;4.28;91.81;100701.00;8310807;28;20408;-58
2023/03/16 05:25:26;;;;;;;8.35;4.80;;;;;;;4.26;92.10;100701.09;8318261;28;20034;-57
2023/03/16 05:29:30;;;;;;;10.52;4.75;;;;;;;4.26;92.15;100697.56;8326474;28;20184;-58
2023/03/16 05:33:31;;;;;;;8.88;5.30;;;;;;;4.26;92.00;100689.53;8325279;28;20099;-58
2023/03/16 05:37:39;;;;;;;12.00;5.32;;;;;;;4.23;92.55;100689.72;8325747;28;21615;-57
2023/03/16 05:41:44;;;;;;;10.07;5.22;;;;;;;4.23;92.73;100700.44;8341399;28;20391;-58
2023/03/16 05:45:51;;;;;;;8.70;5.72;;;;;;;4.16;93.27;100688.41;8325403;28;20045;-57
2023/03/16 05:49:53;;;;;;;8.60;5.50;;;;;;;4.16;93.39;100701.78;8324700;28;20041;-57
2023/03/16 05:53:59;;;;;;;11.15;6.13;;;;;;;4.20;93.70;100700.66;8325287;28;20056;-58
2023/03/16 05:58:07;;;;;;;9.35;6.50;;;;;;;4.18;93.95;100691.84;8316512;28;20410;-58
2023/03/16 06:02:10;;;;;;;11.60;6.63;;;;;;;4.26;93.49;100697.56;8322657;28;20045;-51
2023/03/16 06:06:11;;;;;;;8.75;4.97;;;;;;;4.37;93.65;100697.75;8310950;28;20045;-52
2023/03/16 06:10:25;;;;;;;9.68;5.88;;;;;;;4.41;92.98;100696.59;8265463;28;20129;-51
2023/03/16 06:14:26;;;;;;;11.25;6.22;;;;;;;4.51;93.25;100705.78;8271431;28;20052;-51
2023/03/16 06:18:29;;;;;;;10.15;6.22;;;;;;;4.56;92.93;100700.97;8302418;28;20079;-50
2023/03/16 06:22:30;;;;;;;12.73;6.18;;;;;;;4.65;93.42;100703.94;8311614;28;20049;-53
2023/03/16 06:26:31;;;;;;;14.05;6.55;;;;;;;4.73;92.65;100714.16;8331468;28;20134;-52
2023/03/16 06:30:32;;;;;;;9.70;5.95;;;;;;;4.83;92.44;100708.09;8314898;28;20053;-52
2023/03/16 06:34:33;;;;;;;13.93;6.57;;;;;;;4.89;92.66;100707.69;8309131;28;20543;-52
2023/03/16 06:38:34;;;;;;;8.70;5.13;;;;;;;4.97;91.90;100704.53;8319036;28;20449;-53
2023/03/16 06:42:37;;;;;;;10.55;6.18;;;;;;;5.13;91.84;100702.53;8299825;28;20042;-50
2023/03/16 06:46:38;;;;;;;11.35;6.20;;;;;;;5.13;91.88;100711.44;8324168;28;20060;-51
2023/03/16 06:50:43;;;;;;;9.85;6.18;;;;;;;5.16;91.61;100711.22;8324042;28;20100;-52
2023/03/16 06:54:44;;;;;;;13.32;7.00;;;;;;;5.27;91.93;100718.53;8305887;28;20088;-51
2023/03/16 06:58:45;;;;;;;12.07;6.15;;;;;;;5.33;91.72;100713.63;8312714;28;20509;-51
2023/03/16 07:02:46;;;;;;;11.45;6.40;;;;;;;5.43;91.11;100719.25;8321999;28;20495;-52
2023/03/16 07:06:48;;;;;;;11.95;6.95;;;;;;;5.54;90.66;100716.69;8303119;28;20416;-52
2023/03/16 07:10:50;;;;;;;12.95;6.40;;;;;;;5.62;90.24;100717.88;8297021;28;20033;-54
2023/03/16 07:14:51;;;;;;;10.65;7.00;;;;;;;5.72;89.49;100720.81;8325808;28;20033;-52
2023/03/16 07:18:55;;;;;;;13.03;6.67;;;;;;;5.86;88.96;100728.81;8325832;28;20038;-51
2023/03/16 07:22:55;;;;;;;13.40;8.07;;;;;;;6.07;88.25;100738.03;8324413;28;20038;-57
2023/03/16 07:26:56;;;;;;;9.10;6.32;;;;;;;6.26;86.86;100740.28;8325273;28;20037;-57
2023/03/16 07:31:02;;;;;;;12.43;6.82;;;;;;;6.49;86.00;100729.63;8324279;28;20045;-58
2023/03/16 07:35:05;;;;;;;10.90;6.35;;;;;;;6.76;85.62;100716.91;8325563;28;20116;-58
2023/03/16 07:39:06;;;;;;;12.43;5.97;;;;;;;6.68;85.33;100723.81;8325750;28;20110;-57
2023/03/16 07:43:08;;;;;;;11.95;5.97;;;;;;;6.78;84.89;100723.03;8323706;28;20046;-57
2023/03/16 07:47:13;;;;;;;10.52;6.60;;;;;;;6.69;85.13;100710.28;8303078;28;20468;-57
2023/03/16 07:51:15;;;;;;;8.20;5.45;;;;;;;6.67;85.71;100706.81;8291882;28;20042;-58
2023/03/16 07:55:20;;;;;;;11.68;5.43;;;;;;;6.71;86.79;100708.31;8322462;28;20120;-54
2023/03/16 07:59:23;;;;;;;7.93;5.53;;;;;;;6.85;85.88;100705.47;8322913;28;20044;-54
2023/03/16 08:03:26;;;;;;;10.45;5.75;;;;;;;6.85;85.19;100716.22;8324232;28;20037;-54
2023/03/16 08:07:28;;;;;;;10.43;4.93;;;;;;;6.97;85.03;100699.22;8324408;28;20033;-54
2023/03/16 08:11:35;;;;;;;9.95;5.68;;;;;;;7.07;84.29;100704.75;8324056;28;20053;-53
2023/03/16 08:15:37;;;;;;;7.03;5.10;;;;;;;7.10;83.90;100697.31;8322366;28;20045;-52
2023/03/16 08:19:44;;;;;;;7.88;5.43;;;;;;;7.28;83.67;100714.78;8320104;28;20048;-54
2023/03/16 08:23:49;;;;;;;8.95;5.13;;;;;;;7.40;83.81;100708.47;8323901;28;20049;-52
2023/03/16 08:27:51;;;;;;;7.72;5.13;;;;;;;7.52;83.30;100691.41;8319018;28;20042;-54
2023/03/16 08:31:56;;;;;;;7.03;5.05;;;;;;;7.56;82.55;100686.63;8323131;28;20045;-53
2023/03/16 08:36:06;;;;;;;6.80;4.57;;;;;;;7.52;82.40;100675.25;8320508;28;20041;-54
2023/03/16 08:40:12;;;;;;;8.15;4.75;;;;;;;7.67;81.92;100687.53;8311914;28;20404;-53
2023/03/16 08:44:14;;;;;;;6.72;4.32;;;;;;;7.80;80.35;100701.75;8318916;28;20072;-53
2023/03/16 08:48:17;;;;;;;7.00;4.72;;;;;;;7.82;80.43;100693.56;8320290;28;20056;-52
2023/03/16 08:52:21;;;;;;;9.70;4.30;;;;;;;7.94;79.36;100688.06;8320950;28;20570;-53
2023/03/16 08:56:22;;;;;;;6.32;4.32;;;;;;;8.26;79.39;100685.56;8339440;28;20037;-54
2023/03/16 09:00:22;;;;;;;8.90;5.00;;;;;;;8.67;79.01;100676.84;8320595;28;20061;-53
2023/03/16 09:04:24;;;;;;;10.90;4.50;;;;;;;8.83;77.96;100688.09;8322525;28;20037;-54
2023/03/16 09:08:24;;;;;;;7.78;4.38;;;;;;;8.94;76.46;100670.03;8322659;28;20044;-53
2023/03/16 09:12:25;;;;;;;9.30;4.32;;;;;;;9.21;74.79;100673.16;8322309;28;20048;-54
2023/03/16 09:16:25;;;;;;;9.00;5.22;;;;;;;9.18;76.06;100683.38;8322818;28;20495;-53
2023/03/16 09:20:27;;;;;;;6.95;4.72;;;;;;;8.96;74.03;100672.63;8319134;28;20057;-54
2023/03/16 09:24:28;;;;;;;6.88;4.18;;;;;;;8.82;74.18;100683.69;8322441;28;20503;-53
2023/03/16 09:28:30;;;;;;;7.57;4.15;;;;;;;8.65;74.08;100678.81;8289211;28;20369;-53
2023/03/16 09:32:30;;;;;;;7.40;4.68;;;;;;;8.69;74.50;100680.28;8300577;28;20102;-53
2023/03/16 09:36:32;;;;;;;4.97;3.95;;;;;;;8.75;73.79;100669.00;8315802;28;20041;-53
2023/03/16 09:40:35;;;;;;;6.63;4.35;;;;;;;8.89;73.17;100650.72;8300818;28;20053;-53
2023/03/16 09:44:51;;;;;;;8.02;3.78;;;;;;;9.05;72.35;100653.84;8319161;28;20128;-54
2023/03/16 09:48:53;;;;;;;6.47;3.88;;;;;;;8.96;72.76;100653.75;8280012;28;20057;-54
2023/03/16 09:53:03;;;;;;;5.30;4.07;;;;;;;9.11;73.59;100638.97;8334549;28;20060;-54
2023/03/16 09:57:12;;;;;;;9.85;4.90;;;;;;;9.14;72.97;100649.53;8304544;28;20504;-53
2023/03/16 10:01:25;;;;;;;6.70;3.90;;;;;;;9.23;72.97;100649.63;8310629;28;20033;-54
2023/03/16 10:05:26;;;;;;;5.85;4.13;;;;;;;9.27;72.44;100639.44;8315239;28;20033;-54
2023/03/16 10:09:35;;;;;;;5.20;3.75;;;;;;;9.25;72.00;100642.25;8317777;28;20091;-53
2023/03/16 10:14:03;;;;;;;7.65;4.50;;;;;;;9.41;72.96;100626.47;8313640;28;20507;-54
2023/03/16 10:18:14;;;;;;;6.45;3.63;;;;;;;11.09;69.29;100626.66;8304770;28;20286;-54
2023/03/16 10:22:25;;;;;;;5.88;3.80;;;;;;;12.38;63.65;100617.88;8319640;28;20048;-54
2023/03/16 10:26:35;;;;;;;5.22;3.83;;;;;;;12.13;64.73;100622.13;8320242;28;20128;-54
2023/03/16 10:30:37;;;;;;;6.70;3.40;;;;;;;12.80;63.08;100624.50;8320748;28;20047;-54
2023/03/16 10:34:37;;;;;;;12.98;4.05;;;;;;;12.34;64.75;100621.88;8322015;28;20041;-54
2023/03/16 10:42:51;;;;;;;5.90;3.90;;;;;;;12.38;65.08;100612.47;8346928;27;20876;-55
2023/03/16 10:47:03;;;;;;;6.05;3.55;;;;;;;12.28;64.93;100608.91;8343334;28;20041;-55
2023/03/16 10:51:11;;;;;;;6.97;3.60;;;;;;;11.93;66.16;100611.50;8330386;28;20427;-62
2023/03/16 10:55:21;;;;;;;4.82;3.70;;;;;;;12.81;63.85;100599.94;8311418;28;20101;-61
2023/03/16 10:59:32;;;;;;;5.07;3.47;;;;;;;13.91;61.69;100585.84;8339484;28;20084;-61
2023/03/16 11:03:40;;;;;;;5.72;2.90;;;;;;;14.56;59.87;100577.03;8343918;28;20057;-61
2023/03/16 11:08:09;;;;;;;4.53;2.83;;;;;;;15.28;57.27;100584.50;8342061;28;20222;-61
2023/03/16 11:12:21;;;;;;;6.63;3.13;;;;;;;14.75;58.80;100581.31;8346138;28;20614;-58
2023/03/16 11:16:42;;;;;;;7.03;3.38;;;;;;;15.52;57.50;100570.88;8342456;28;20302;-58
2023/03/16 11:20:44;;;;;;;7.38;2.72;;;;;;;15.07;56.16;100549.56;8344726;28;20049;-56
2023/03/16 11:29:08;;;;;;;6.80;2.80;;;;;;;14.69;58.75;100533.84;8345938;27;20936;-56
2023/03/16 11:33:12;;;;;;;4.55;1.52;;;;;;;15.69;55.21;100528.97;8314050;28;20041;-56
2023/03/16 11:37:24;;;;;;;;;;;;;;;15.76;53.00;100531.88;8347791;28;20446;-56
2023/03/16 11:41:38;;;;;;;4.65;1.02;;;;;;;17.17;53.55;100528.84;8380925;28;19928;-56
2023/03/16 11:46:15;;;;;;;4.00;0.88;;;;;;;16.96;50.83;100509.53;8371589;28;20564;-56
2023/03/16 11:50:46;;;;;;;2.17;1.08;;;;;;;16.22;51.22;100503.78;8365748;28;20041;-56
2023/03/16 12:04:02;;;;;;;1.77;0.88;;;;;;;16.01;52.63;100473.53;8403908;27;20750;-56
2023/03/16 12:08:43;;;;;;;3.83;0.75;;;;;;;15.74;53.94;100483.81;8396649;27;20498;-57
2023/03/16 12:13:20;;;;;;;2.35;1.15;;;;;;;15.47;53.17;100459.69;8397305;27;20593;-57
2023/03/16 12:17:26;;;;;;;4.55;1.02;;;;;;;16.00;52.33;100460.88;8393196;27;20120;-56
2023/03/16 12:21:31;;;;;;;3.00;0.65;;;;;;;16.04;52.02;100452.19;8387067;27;20059;-57
2023/03/16 12:25:38;;;;;;;1.95;0.60;;;;;;;16.11;52.79;100441.44;8390173;27;20076;-57
2023/03/16 12:29:51;;;;;;;2.83;0.93;;;;;;;16.02;52.98;100447.94;8396705;27;20044;-57
2023/03/16 12:34:02;;;;;;;2.65;0.77;;;;;;;14.98;53.70;100444.38;8387547;27;20515;-58
2023/03/16 12:38:43;;;;;;;1.70;0.50;;;;;;;14.43;55.37;100418.88;8382234;27;20040;-57
2023/03/16 12:43:05;;;;;;;2.97;0.52;;;;;;;14.22;56.12;100407.56;8363840;28;20044;-57
2023/03/16 12:47:30;;;;;;;4.57;0.93;;;;;;;14.27;56.36;100413.38;8355323;28;20053;-57
2023/03/16 12:51:35;;;;;;;3.38;1.13;;;;;;;14.27;59.36;100394.34;8374680;28;20102;-57
2023/03/16 12:59:53;;;;;;;2.58;0.80;;;;;;;14.14;58.94;100383.06;8308880;27;20925;-57
2023/03/16 13:04:15;;;;;;;6.55;0.60;;;;;;;13.88;57.00;100363.31;8303989;28;20037;-57
2023/03/16 13:08:20;;;;;;;4.32;1.13;;;;;;;14.01;60.42;100373.69;8307896;28;20042;-57
2023/03/16 13:12:27;;;;;;;4.75;1.25;;;;;;;14.06;60.09;100372.16;8310220;28;20037;-56
2023/03/16 13:16:31;;;;;;;2.72;0.60;;;;;;;14.07;56.01;100363.00;8307218;28;20042;-57
2023/03/16 13:20:49;;;;;;;3.30;0.60;;;;;;;14.18;55.33;100370.00;8288226;28;20538;-57
2023/03/16 13:25:10;;;;;;;2.67;0.80;;;;;;;14.12;56.38;100366.06;8307238;28;20041;-58
2023/03/16 13:29:28;;;;;;;0.95;0.60;;;;;;;14.18;55.67;100346.34;8295244;28;20038;-59
2023/03/16 13:33:31;;;;;;;1.75;0.68;;;;;;;14.38;56.80;100353.22;8277635;28;20061;-59
2023/03/16 13:37:32;;;;;;;1.90;0.70;;;;;;;14.35;55.72;100361.72;8283701;28;20400;-59
2023/03/16 13:41:33;;;;;;;2.42;0.60;;;;;;;14.40;55.70;100343.03;8312304;28;20125;-59
2023/03/16 13:45:37;;;;;;;3.55;0.80;;;;;;;14.59;55.17;100337.25;8306491;28;20038;-59
2023/03/16 13:49:48;;;;;;;3.22;0.43;;;;;;;14.56;55.07;100326.72;8276675;28;20038;-59
2023/03/16 13:53:49;;;;;;;23.63;1.35;;;;;;;14.56;53.81;100336.72;8311601;28;20034;-57
2023/03/16 13:57:51;;;;;;;4.55;0.75;;;;;;;14.50;53.91;100316.50;8304543;28;20132;-58
2023/03/16 14:02:00;;;;;;;1.38;0.70;;;;;;;14.42;54.30;100307.50;8291214;28;20081;-59
2023/03/16 14:06:02;;;;;;;2.55;1.00;;;;;;;14.55;55.58;100286.91;8308829;28;20042;-59
2023/03/16 14:10:04;;;;;;;5.65;0.65;;;;;;;14.33;55.09;100293.03;8275850;28;20221;-59
2023/03/16 14:14:15;;;;;;;3.00;0.68;;;;;;;14.38;57.02;100285.22;8269881;28;20136;-59
2023/03/16 14:18:20;;;;;;;1.90;0.52;;;;;;;14.39;57.23;100281.47;8266317;28;20042;-59
2023/03/16 14:22:28;;;;;;;3.05;0.77;;;;;;;14.48;56.31;100266.84;8260046;28;20401;-59
2023/03/16 14:26:40;;;;;;;2.10;0.52;;;;;;;14.40;57.51;100253.28;8245710;28;20451;-59
2023/03/16 14:30:51;;;;;;;2.35;0.90;;;;;;;14.25;57.09;100241.41;8278078;28;20034;-59
2023/03/16 14:34:59;;;;;;;2.65;0.90;;;;;;;14.29;58.45;100225.56;8283257;28;20045;-52
2023/03/16 14:39:10;;;;;;;3.38;0.70;;;;;;;14.16;57.27;100226.06;8288055;28;20451;-52
2023/03/16 14:43:10;;;;;;;3.55;0.90;;;;;;;14.21;57.23;100234.53;8267195;28;20042;-52
2023/03/16 14:47:21;;;;;;;3.53;0.95;;;;;;;14.18;57.28;100201.44;8284505;28;20046;-51
2023/03/16 14:51:23;;;;;;;3.05;0.85;;;;;;;14.10;58.16;100229.47;8268627;28;20034;-52
2023/03/16 14:55:24;;;;;;;4.05;1.02;;;;;;;14.16;57.59;100230.66;8280520;28;20042;-53
2023/03/16 14:59:25;;;;;;;1.80;0.98;;;;;;;14.08;59.02;100238.78;8284604;28;20062;-52
2023/03/16 15:03:34;;;;;;;2.90;1.02;;;;;;;14.07;58.42;100216.22;8286616;28;20037;-52
2023/03/16 15:07:39;;;;;;;1.75;0.70;;;;;;;14.29;58.65;100204.66;8287350;28;20605;-52
2023/03/16 15:11:42;;;;;;;;;;;;;;;14.21;58.44;100220.94;8285615;28;20038;-52
2023/03/16 15:15:42;;;;;;;3.22;0.98;;;;;;;14.18;59.04;100215.03;8250842;28;20345;-51
2023/03/16 15:19:43;;;;;;;5.18;0.73;;;;;;;14.28;58.68;100213.00;8236733;28;20043;-52
2023/03/16 15:23:44;;;;;;;5.82;1.08;;;;;;;14.29;59.15;100204.66;8238444;28;20130;-52
2023/03/16 15:27:45;;;;;;;7.72;1.10;;;;;;;14.12;59.87;100202.09;8242393;28;20355;-51
2023/03/16 15:31:47;;;;;;;3.38;1.15;;;;;;;14.19;59.63;100201.25;8245015;28;20415;-52
2023/03/16 15:35:49;;;;;;;4.10;1.10;;;;;;;14.07;59.89;100207.19;8274696;28;20240;-52
2023/03/16 15:39:50;;;;;;;3.45;1.15;;;;;;;14.15;59.67;100199.88;8240693;28;20038;-53
2023/03/16 15:43:51;;;;;;;4.00;1.30;;;;;;;14.19;60.35;100201.25;8287274;28;20042;-53
2023/03/16 15:47:52;;;;;;;3.17;1.02;;;;;;;14.14;60.65;100190.03;8281769;28;20095;-53
2023/03/16 15:51:53;;;;;;;2.25;1.50;;;;;;;14.02;61.07;100175.09;8242302;28;20042;-53
2023/03/16 15:55:58;;;;;;;3.70;1.40;;;;;;;13.89;61.14;100177.47;8268541;28;20286;-54
2023/03/16 15:59:59;;;;;;;1.98;1.30;;;;;;;13.87;61.91;100170.53;8268718;28;20049;-53
2023/03/16 16:03:59;;;;;;;2.80;1.73;;;;;;;13.88;62.74;100178.50;8269417;28;20403;-53
2023/03/16 16:08:00;;;;;;;3.55;1.48;;;;;;;13.79;63.12;100168.66;8285320;28;20061;-53
2023/03/16 16:12:00;;;;;;;3.78;2.03;;;;;;;13.79;63.74;100168.66;8276226;28;20064;-52
2023/03/16 16:16:01;;;;;;;6.70;2.17;;;;;;;13.80;63.73;100171.22;8284537;28;20052;-53
2023/03/16 16:20:16;;;;;;;7.35;2.00;;;;;;;13.73;64.22;100169.34;8284925;28;20046;-53
2023/03/16 16:24:17;;;;;;;5.82;3.17;;;;;;;13.70;64.98;100158.81;8285392;28;20145;-53
2023/03/16 16:28:21;;;;;;;4.18;2.55;;;;;;;13.70;65.25;100161.53;8259957;28;20045;-53
2023/03/16 16:32:23;;;;;;;2.83;1.83;;;;;;;13.70;66.34;100147.94;8284062;28;20057;-54
2023/03/16 16:36:24;;;;;;;3.60;1.70;;;;;;;13.70;67.00;100153.38;8283963;28;20029;-53
2023/03/16 16:40:35;;;;;;;3.78;1.58;;;;;;;13.46;68.27;100145.19;8246752;28;20564;-54
2023/03/16 16:44:36;;;;;;;3.83;1.80;;;;;;;13.41;68.94;100163.84;8241614;28;20416;-53
2023/03/16 16:48:38;;;;;;;5.43;1.80;;;;;;;13.27;69.05;100161.81;8270885;28;20072;-52
2023/03/16 16:52:39;;;;;;;5.45;1.40;;;;;;;13.24;67.68;100162.13;8245781;28;20043;-53
2023/03/16 16:56:40;;;;;;;2.30;1.63;;;;;;;13.31;66.70;100155.00;8254026;28;20064;-55
2023/03/16 17:00:43;;;;;;;2.33;1.50;;;;;;;13.16;67.13;100151.25;8261053;28;20043;-53
2023/03/16 17:04:43;;;;;;;2.35;1.75;;;;;;;13.11;66.86;100150.88;8229558;28;20054;-53
2023/03/16 17:08:46;;;;;;;2.65;1.92;;;;;;;13.03;66.56;100150.88;8240081;28;20797;-54
2023/03/16 17:12:48;;;;;;;2.08;1.70;;;;;;;12.93;66.66;100158.28;8236377;28;20397;-53
2023/03/16 17:16:50;;;;;;;5.93;1.90;;;;;;;12.80;66.99;100149.72;8242820;28;20100;-53
2023/03/16 17:20:51;;;;;;;3.22;1.90;;;;;;;12.71;67.05;100153.41;8232738;28;20042;-54
2023/03/16 17:24:52;;;;;;;2.70;1.40;;;;;;;12.56;67.55;100145.06;8250930;28;20096;-54
2023/03/16 17:29:01;;;;;;;3.33;1.90;;;;;;;12.45;67.39;100148.06;8279211;28;20038;-53
2023/03/16 17:33:11;;;;;;;7.63;1.83;;;;;;;12.40;67.35;100160.38;8283642;28;20571;-56
2023/03/16 17:37:16;;;;;;;5.57;2.00;;;;;;;12.31;67.94;100156.78;8264580;28;20041;-57
2023/03/16 17:41:22;;;;;;;2.55;1.88;;;;;;;12.19;68.54;100152.66;8236891;28;20317;-57
2023/03/16 17:45:26;;;;;;;7.25;2.22;;;;;;;12.06;69.57;100159.50;8258323;28;20041;-53
2023/03/16 17:49:27;;;;;;;6.22;2.47;;;;;;;11.85;70.59;100154.44;8290016;28;20038;-53
2023/03/16 17:53:27;;;;;;;4.05;3.22;;;;;;;11.60;72.25;100166.06;8279925;28;20038;-53
2023/03/16 17:57:31;;;;;;;5.93;3.10;;;;;;;11.36;73.75;100166.69;8251442;28;20101;-55
2023/03/16 18:01:33;;;;;;;4.60;2.93;;;;;;;11.20;74.45;100174.59;8258806;28;20138;-55
2023/03/16 18:05:35;;;;;;;4.72;3.13;;;;;;;11.12;74.90;100171.84;8256160;28;20145;-54
2023/03/16 18:09:36;;;;;;;4.13;3.33;;;;;;;11.07;75.12;100182.25;8279500;28;20656;-54
2023/03/16 18:13:39;;;;;;;5.40;3.17;;;;;;;11.09;74.70;100187.50;8281487;28;20069;-54
2023/03/16 18:17:39;;;;;;;5.43;3.28;;;;;;;11.10;74.24;100184.66;8280779;28;20089;-55
2023/03/16 18:21:40;;;;;;;5.22;2.78;;;;;;;11.09;74.00;100184.78;8238403;28;20070;-54
2023/03/16 18:25:41;;;;;;;5.45;3.40;;;;;;;11.11;73.66;100180.09;8228695;28;20042;-54
2023/03/16 18:29:42;;;;;;;6.20;3.58;;;;;;;11.05;73.09;100170.75;8210141;28;20039;-54
2023/03/16 18:33:45;;;;;;;7.82;4.50;;;;;;;10.99;73.29;100171.34;8223942;28;20034;-55
2023/03/16 18:37:46;;;;;;;7.20;3.47;;;;;;;10.99;73.27;100176.75;8229203;28;20044;-54
2023/03/16 18:41:47;;;;;;;5.47;3.80;;;;;;;10.87;73.71;100172.56;8215695;28;20052;-54
2023/03/16 18:45:48;;;;;;;7.78;3.45;;;;;;;10.83;73.76;100176.53;8269338;28;20052;-54
2023/03/16 18:49:52;;;;;;;6.47;4.15;;;;;;;10.75;73.83;100172.91;8287937;28;20042;-55
2023/03/16 18:53:52;;;;;;;7.38;3.95;;;;;;;10.72;73.59;100174.06;8274000;28;20474;-55
2023/03/16 18:57:55;;;;;;;4.72;3.30;;;;;;;10.57;74.54;100162.03;8275223;28;20518;-53
2023/03/16 19:01:58;;;;;;;8.20;3.72;;;;;;;10.52;74.39;100164.31;8269731;28;20104;-53
2023/03/16 19:06:00;;;;;;;10.73;3.72;;;;;;;10.54;74.04;100162.34;8287670;28;20041;-55
2023/03/16 19:10:07;;;;;;;5.43;3.30;;;;;;;10.55;73.93;100168.59;8263637;28;20066;-54
2023/03/16 19:14:15;;;;;;;9.43;3.60;;;;;;;10.53;73.96;100168.75;8262381;28;20576;-54
2023/03/16 19:18:16;;;;;;;7.20;3.30;;;;;;;10.48;73.97;100168.34;8256466;28;20053;-54
2023/03/16 19:22:20;;;;;;;5.55;3.08;;;;;;;10.46;74.10;100166.78;8255940;28;20105;-60
2023/03/16 19:26:20;;;;;;;8.55;3.35;;;;;;;10.39;74.27;100155.72;8261144;28;20334;-60
2023/03/16 19:30:26;;;;;;;4.00;3.03;;;;;;;10.45;74.04;100170.47;8273096;28;20034;-60